sensor_id;sensor_type;location;lat;lon;timestamp;temperature;humidity
13642;DHT22;6894;52.196;9.904;2023-06-10T00:01:14;17.20;99.90
13642;DHT22;6894;52.196;9.904;2023-06-10T00:03:40;17.30;99.90
13642;DHT22;6894;52.196;9.904;2023-06-10T00:06:08;17.10;55.20
13642;DHT22;6894;52.196;9.904;2023-06-10T00:08:35;17.10;99.90
13642;DHT22;6894;52.196;9.904;2023-06-10T00:11:03;17.00;99.90
13642;DHT22;6894;52.196;9.904;2023-06-10T00:13:29;16.90;99.90
13642;DHT22;6894;52.196;9.904;2023-06-10T00:15:56;16.90;99.90
13642;DHT22;6894;52.196;9.904;2023-06-10T00:18:24;16.80;99.90
13642;DHT22;6894;52.196;9.904;2023-06-10T00:20:52;16.70;1.00
13642;DHT22;6894;52.196;9.904;2023-06-10T00:23:20;16.70;1.00
13642;DHT22;6894;52.196;9.904;2023-06-10T00:25:48;16.80;1.00
13642;DHT22;6894;52.196;9.904;2023-06-10T00:28:14;16.70;1.00
13642;DHT22;6894;52.196;9.904;2023-06-10T00:30:41;16.70;1.00
13642;DHT22;6894;52.196;9.904;2023-06-10T00:33:08;16.80;1.00
13642;DHT22;6894;52.196;9.904;2023-06-10T00:35:36;16.70;1.00
13642;DHT22;6894;52.196;9.904;2023-06-10T00:38:03;16.70;1.00
13642;DHT22;6894;52.196;9.904;2023-06-10T00:40:30;16.60;1.00
13642;DHT22;6894;52.196;9.904;2023-06-10T00:42:56;16.60;1.00
13642;DHT22;6894;52.196;9.904;2023-06-10T00:45:23;16.60;1.00
13642;DHT22;6894;52.196;9.904;2023-06-10T00:47:50;16.60;1.00
13642;DHT22;6894;52.196;9.904;2023-06-10T00:50:17;16.60;1.00
13642;DHT22;6894;52.196;9.904;2023-06-10T00:52:45;16.60;1.00
13642;DHT22;6894;52.196;9.904;2023-06-10T00:55:14;16.60;1.00
13642;DHT22;6894;52.196;9.904;2023-06-10T00:57:42;16.60;1.00
13642;DHT22;6894;52.196;9.904;2023-06-10T01:00:10;16.50;1.00
13642;DHT22;6894;52.196;9.904;2023-06-10T01:02:37;16.40;1.00
13642;DHT22;6894;52.196;9.904;2023-06-10T01:05:05;16.40;1.00
13642;DHT22;6894;52.196;9.904;2023-06-10T01:07:37;16.40;1.00
13642;DHT22;6894;52.196;9.904;2023-06-10T01:10:09;16.40;52.40
13642;DHT22;6894;52.196;9.904;2023-06-10T01:12:43;16.30;99.90
13642;DHT22;6894;52.196;9.904;2023-06-10T01:15:14;16.20;99.90
13642;DHT22;6894;52.196;9.904;2023-06-10T01:17:54;16.30;1.00
13642;DHT22;6894;52.196;9.904;2023-06-10T01:20:20;16.30;1.00
13642;DHT22;6894;52.196;9.904;2023-06-10T01:22:49;16.20;1.00
13642;DHT22;6894;52.196;9.904;2023-06-10T01:25:16;16.20;99.90
13642;DHT22;6894;52.196;9.904;2023-06-10T01:27:45;16.20;1.00
13642;DHT22;6894;52.196;9.904;2023-06-10T01:30:16;16.20;1.00
13642;DHT22;6894;52.196;9.904;2023-06-10T01:32:46;16.20;99.90
13642;DHT22;6894;52.196;9.904;2023-06-10T01:35:15;16.20;1.00
13642;DHT22;6894;52.196;9.904;2023-06-10T01:37:45;16.20;32.40
13642;DHT22;6894;52.196;9.904;2023-06-10T01:40:14;16.20;99.90
13642;DHT22;6894;52.196;9.904;2023-06-10T01:42:41;16.10;1.00
13642;DHT22;6894;52.196;9.904;2023-06-10T01:45:09;16.00;91.90
13642;DHT22;6894;52.196;9.904;2023-06-10T01:47:35;16.00;1.00
13642;DHT22;6894;52.196;9.904;2023-06-10T01:50:02;16.00;31.00
13642;DHT22;6894;52.196;9.904;2023-06-10T01:52:29;15.90;99.90
13642;DHT22;6894;52.196;9.904;2023-06-10T01:54:56;15.70;1.00
13642;DHT22;6894;52.196;9.904;2023-06-10T01:57:24;15.70;99.90
13642;DHT22;6894;52.196;9.904;2023-06-10T01:59:50;15.60;1.00
13642;DHT22;6894;52.196;9.904;2023-06-10T02:02:17;15.60;1.00
13642;DHT22;6894;52.196;9.904;2023-06-10T02:04:44;15.60;99.90
13642;DHT22;6894;52.196;9.904;2023-06-10T02:07:10;15.60;99.90
13642;DHT22;6894;52.196;9.904;2023-06-10T02:09:37;15.50;99.90
13642;DHT22;6894;52.196;9.904;2023-06-10T02:12:05;15.30;99.90
13642;DHT22;6894;52.196;9.904;2023-06-10T02:14:34;15.10;1.00
13642;DHT22;6894;52.196;9.904;2023-06-10T02:17:00;15.00;1.00
13642;DHT22;6894;52.196;9.904;2023-06-10T02:19:27;14.90;1.00
13642;DHT22;6894;52.196;9.904;2023-06-10T02:21:54;14.90;99.90
13642;DHT22;6894;52.196;9.904;2023-06-10T02:24:20;14.90;1.00
13642;DHT22;6894;52.196;9.904;2023-06-10T02:26:47;14.90;1.00
13642;DHT22;6894;52.196;9.904;2023-06-10T02:29:14;14.90;28.70
13642;DHT22;6894;52.196;9.904;2023-06-10T02:31:42;15.00;64.40
13642;DHT22;6894;52.196;9.904;2023-06-10T02:34:09;15.00;25.40
13642;DHT22;6894;52.196;9.904;2023-06-10T02:36:35;14.90;1.00
13642;DHT22;6894;52.196;9.904;2023-06-10T02:39:02;14.80;1.00
13642;DHT22;6894;52.196;9.904;2023-06-10T02:41:29;14.70;1.00
13642;DHT22;6894;52.196;9.904;2023-06-10T02:43:56;14.60;99.90
13642;DHT22;6894;52.196;9.904;2023-06-10T02:46:23;14.50;99.90
13642;DHT22;6894;52.196;9.904;2023-06-10T02:48:51;14.40;1.00
13642;DHT22;6894;52.196;9.904;2023-06-10T02:51:18;14.40;1.00
13642;DHT22;6894;52.196;9.904;2023-06-10T02:53:45;14.50;1.00
13642;DHT22;6894;52.196;9.904;2023-06-10T02:56:12;14.40;1.00
13642;DHT22;6894;52.196;9.904;2023-06-10T02:58:38;14.50;1.00
13642;DHT22;6894;52.196;9.904;2023-06-10T03:01:05;14.50;1.00
13642;DHT22;6894;52.196;9.904;2023-06-10T03:03:32;14.50;1.00
13642;DHT22;6894;52.196;9.904;2023-06-10T03:06:00;14.60;1.00
13642;DHT22;6894;52.196;9.904;2023-06-10T03:08:28;14.60;1.00
13642;DHT22;6894;52.196;9.904;2023-06-10T03:10:55;14.70;1.00
13642;DHT22;6894;52.196;9.904;2023-06-10T03:13:23;14.50;1.00
13642;DHT22;6894;52.196;9.904;2023-06-10T03:15:50;14.50;1.00
13642;DHT22;6894;52.196;9.904;2023-06-10T03:18:16;14.50;1.00
13642;DHT22;6894;52.196;9.904;2023-06-10T03:20:43;14.30;1.00
13642;DHT22;6894;52.196;9.904;2023-06-10T03:23:12;14.30;99.90
13642;DHT22;6894;52.196;9.904;2023-06-10T03:25:38;14.50;1.00
13642;DHT22;6894;52.196;9.904;2023-06-10T03:28:05;14.20;1.00
13642;DHT22;6894;52.196;9.904;2023-06-10T03:30:32;14.10;1.00
13642;DHT22;6894;52.196;9.904;2023-06-10T03:32:58;14.10;1.00
13642;DHT22;6894;52.196;9.904;2023-06-10T03:35:26;14.20;1.00
13642;DHT22;6894;52.196;9.904;2023-06-10T03:37:52;14.20;1.00
13642;DHT22;6894;52.196;9.904;2023-06-10T03:40:21;14.30;1.00
13642;DHT22;6894;52.196;9.904;2023-06-10T03:42:47;14.40;1.00
13642;DHT22;6894;52.196;9.904;2023-06-10T03:45:14;14.40;1.00
13642;DHT22;6894;52.196;9.904;2023-06-10T03:47:41;14.50;1.00
13642;DHT22;6894;52.196;9.904;2023-06-10T03:50:09;14.50;1.00
13642;DHT22;6894;52.196;9.904;2023-06-10T03:52:38;14.50;1.00
13642;DHT22;6894;52.196;9.904;2023-06-10T03:55:05;14.50;1.00
13642;DHT22;6894;52.196;9.904;2023-06-10T03:57:33;14.50;1.00
13642;DHT22;6894;52.196;9.904;2023-06-10T04:00:00;14.50;1.00
13642;DHT22;6894;52.196;9.904;2023-06-10T04:02:31;14.50;1.00
13642;DHT22;6894;52.196;9.904;2023-06-10T04:05:00;14.50;1.00
13642;DHT22;6894;52.196;9.904;2023-06-10T04:07:27;14.60;1.00
13642;DHT22;6894;52.196;9.904;2023-06-10T04:09:53;14.50;1.00
13642;DHT22;6894;52.196;9.904;2023-06-10T04:12:20;14.50;1.00
13642;DHT22;6894;52.196;9.904;2023-06-10T04:14:48;14.70;1.00
13642;DHT22;6894;52.196;9.904;2023-06-10T04:17:16;14.70;1.00
13642;DHT22;6894;52.196;9.904;2023-06-10T04:19:43;14.70;1.00
13642;DHT22;6894;52.196;9.904;2023-06-10T04:22:10;14.70;1.00
13642;DHT22;6894;52.196;9.904;2023-06-10T04:24:36;14.80;1.00
13642;DHT22;6894;52.196;9.904;2023-06-10T04:27:04;14.80;1.00
13642;DHT22;6894;52.196;9.904;2023-06-10T04:29:31;14.90;1.00
13642;DHT22;6894;52.196;9.904;2023-06-10T04:31:59;15.00;1.00
13642;DHT22;6894;52.196;9.904;2023-06-10T04:34:27;15.10;1.00
13642;DHT22;6894;52.196;9.904;2023-06-10T04:36:53;15.30;1.00
13642;DHT22;6894;52.196;9.904;2023-06-10T04:39:21;15.30;1.00
13642;DHT22;6894;52.196;9.904;2023-06-10T04:41:48;15.50;1.00
13642;DHT22;6894;52.196;9.904;2023-06-10T04:44:14;15.50;99.90
13642;DHT22;6894;52.196;9.904;2023-06-10T04:46:41;15.50;99.90
13642;DHT22;6894;52.196;9.904;2023-06-10T04:49:09;15.50;99.90
13642;DHT22;6894;52.196;9.904;2023-06-10T04:51:36;15.60;99.90
13642;DHT22;6894;52.196;9.904;2023-06-10T04:54:03;15.70;99.90
13642;DHT22;6894;52.196;9.904;2023-06-10T04:56:30;15.90;77.00
13642;DHT22;6894;52.196;9.904;2023-06-10T04:58:57;15.80;7.00
13642;DHT22;6894;52.196;9.904;2023-06-10T05:01:23;15.90;1.00
13642;DHT22;6894;52.196;9.904;2023-06-10T05:03:50;16.00;1.00
13642;DHT22;6894;52.196;9.904;2023-06-10T05:06:18;16.10;1.00
13642;DHT22;6894;52.196;9.904;2023-06-10T05:08:45;16.20;1.00
13642;DHT22;6894;52.196;9.904;2023-06-10T05:11:11;16.20;99.90
13642;DHT22;6894;52.196;9.904;2023-06-10T05:13:38;16.30;1.00
13642;DHT22;6894;52.196;9.904;2023-06-10T05:16:06;16.20;99.90
13642;DHT22;6894;52.196;9.904;2023-06-10T05:18:33;16.30;99.90
13642;DHT22;6894;52.196;9.904;2023-06-10T05:21:00;16.40;1.00
13642;DHT22;6894;52.196;9.904;2023-06-10T05:23:29;16.40;1.00
13642;DHT22;6894;52.196;9.904;2023-06-10T05:25:55;16.40;1.00
13642;DHT22;6894;52.196;9.904;2023-06-10T05:28:22;16.40;1.00
13642;DHT22;6894;52.196;9.904;2023-06-10T05:30:49;16.80;1.00
13642;DHT22;6894;52.196;9.904;2023-06-10T05:33:16;16.30;99.90
13642;DHT22;6894;52.196;9.904;2023-06-10T05:35:43;16.20;1.00
13642;DHT22;6894;52.196;9.904;2023-06-10T05:38:09;16.30;99.90
13642;DHT22;6894;52.196;9.904;2023-06-10T05:40:37;16.30;99.90
13642;DHT22;6894;52.196;9.904;2023-06-10T05:43:04;16.30;1.00
13642;DHT22;6894;52.196;9.904;2023-06-10T05:45:31;16.30;99.90
13642;DHT22;6894;52.196;9.904;2023-06-10T05:47:57;16.20;1.00
13642;DHT22;6894;52.196;9.904;2023-06-10T05:50:24;16.30;95.30
13642;DHT22;6894;52.196;9.904;2023-06-10T05:52:51;16.30;81.10
13642;DHT22;6894;52.196;9.904;2023-06-10T05:55:19;16.20;99.90
13642;DHT22;6894;52.196;9.904;2023-06-10T05:57:47;16.20;99.90
13642;DHT22;6894;52.196;9.904;2023-06-10T06:00:14;16.20;1.00
13642;DHT22;6894;52.196;9.904;2023-06-10T06:02:41;16.20;27.30
13642;DHT22;6894;52.196;9.904;2023-06-10T06:05:08;16.20;1.00
13642;DHT22;6894;52.196;9.904;2023-06-10T06:07:35;16.20;47.50
13642;DHT22;6894;52.196;9.904;2023-06-10T06:10:01;16.30;99.90
13642;DHT22;6894;52.196;9.904;2023-06-10T06:12:28;16.40;99.90
13642;DHT22;6894;52.196;9.904;2023-06-10T06:14:56;16.40;1.00
13642;DHT22;6894;52.196;9.904;2023-06-10T06:17:23;16.50;1.00
13642;DHT22;6894;52.196;9.904;2023-06-10T06:19:49;16.50;99.90
13642;DHT22;6894;52.196;9.904;2023-06-10T06:22:17;16.60;99.90
13642;DHT22;6894;52.196;9.904;2023-06-10T06:24:45;16.60;1.00
13642;DHT22;6894;52.196;9.904;2023-06-10T06:27:12;16.70;1.00
13642;DHT22;6894;52.196;9.904;2023-06-10T06:29:39;16.80;1.00
13642;DHT22;6894;52.196;9.904;2023-06-10T06:32:08;16.90;99.90
13642;DHT22;6894;52.196;9.904;2023-06-10T06:34:34;17.00;1.00
13642;DHT22;6894;52.196;9.904;2023-06-10T06:37:01;17.10;1.00
13642;DHT22;6894;52.196;9.904;2023-06-10T06:39:28;17.20;1.00
13642;DHT22;6894;52.196;9.904;2023-06-10T06:41:54;17.30;1.00
13642;DHT22;6894;52.196;9.904;2023-06-10T06:44:21;17.40;99.90
13642;DHT22;6894;52.196;9.904;2023-06-10T06:46:48;17.50;1.00
13642;DHT22;6894;52.196;9.904;2023-06-10T06:49:16;17.60;99.90
13642;DHT22;6894;52.196;9.904;2023-06-10T06:51:42;17.60;34.90
13642;DHT22;6894;52.196;9.904;2023-06-10T06:54:09;17.60;1.00
13642;DHT22;6894;52.196;9.904;2023-06-10T06:56:37;17.70;1.00
13642;DHT22;6894;52.196;9.904;2023-06-10T06:59:04;17.70;1.00
13642;DHT22;6894;52.196;9.904;2023-06-10T07:01:33;17.80;99.90
13642;DHT22;6894;52.196;9.904;2023-06-10T07:04:00;17.90;1.00
13642;DHT22;6894;52.196;9.904;2023-06-10T07:06:28;18.20;99.90
13642;DHT22;6894;52.196;9.904;2023-06-10T07:08:54;18.40;1.00
13642;DHT22;6894;52.196;9.904;2023-06-10T07:11:21;18.50;99.90
13642;DHT22;6894;52.196;9.904;2023-06-10T07:13:48;18.80;1.00
13642;DHT22;6894;52.196;9.904;2023-06-10T07:16:14;19.30;1.00
13642;DHT22;6894;52.196;9.904;2023-06-10T07:18:41;19.70;1.00
13642;DHT22;6894;52.196;9.904;2023-06-10T07:21:08;20.00;99.90
13642;DHT22;6894;52.196;9.904;2023-06-10T07:23:36;20.20;1.00
13642;DHT22;6894;52.196;9.904;2023-06-10T07:26:03;20.50;1.00
13642;DHT22;6894;52.196;9.904;2023-06-10T07:28:29;20.70;99.90
13642;DHT22;6894;52.196;9.904;2023-06-10T07:30:56;20.80;99.90
13642;DHT22;6894;52.196;9.904;2023-06-10T07:33:23;21.00;77.40
13642;DHT22;6894;52.196;9.904;2023-06-10T07:35:49;21.20;1.00
13642;DHT22;6894;52.196;9.904;2023-06-10T07:38:17;21.10;1.00
13642;DHT22;6894;52.196;9.904;2023-06-10T07:40:45;21.30;1.00
13642;DHT22;6894;52.196;9.904;2023-06-10T07:43:12;21.50;1.00
13642;DHT22;6894;52.196;9.904;2023-06-10T07:45:40;21.70;99.90
13642;DHT22;6894;52.196;9.904;2023-06-10T07:48:07;21.80;99.90
13642;DHT22;6894;52.196;9.904;2023-06-10T07:50:33;22.20;99.90
13642;DHT22;6894;52.196;9.904;2023-06-10T07:53:00;22.50;1.00
13642;DHT22;6894;52.196;9.904;2023-06-10T07:55:27;22.60;1.00
13642;DHT22;6894;52.196;9.904;2023-06-10T07:57:55;22.70;1.00
13642;DHT22;6894;52.196;9.904;2023-06-10T08:00:22;23.00;1.00
13642;DHT22;6894;52.196;9.904;2023-06-10T08:02:48;23.10;1.00
13642;DHT22;6894;52.196;9.904;2023-06-10T08:05:16;23.00;1.00
13642;DHT22;6894;52.196;9.904;2023-06-10T08:07:42;23.20;1.00
13642;DHT22;6894;52.196;9.904;2023-06-10T08:10:10;23.30;1.00
13642;DHT22;6894;52.196;9.904;2023-06-10T08:12:37;23.50;1.00
13642;DHT22;6894;52.196;9.904;2023-06-10T08:15:06;23.70;1.00
13642;DHT22;6894;52.196;9.904;2023-06-10T08:17:33;23.80;1.00
13642;DHT22;6894;52.196;9.904;2023-06-10T08:20:00;23.90;1.00
13642;DHT22;6894;52.196;9.904;2023-06-10T08:22:27;23.90;1.00
13642;DHT22;6894;52.196;9.904;2023-06-10T08:24:55;23.80;1.00
13642;DHT22;6894;52.196;9.904;2023-06-10T08:27:22;23.90;1.00
13642;DHT22;6894;52.196;9.904;2023-06-10T08:29:49;24.20;1.00
13642;DHT22;6894;52.196;9.904;2023-06-10T08:32:17;24.50;1.00
13642;DHT22;6894;52.196;9.904;2023-06-10T08:34:44;24.60;1.00
13642;DHT22;6894;52.196;9.904;2023-06-10T08:37:10;25.00;1.00
13642;DHT22;6894;52.196;9.904;2023-06-10T08:39:37;25.30;1.00
13642;DHT22;6894;52.196;9.904;2023-06-10T08:42:10;25.10;1.00
13642;DHT22;6894;52.196;9.904;2023-06-10T08:44:38;25.10;1.00
13642;DHT22;6894;52.196;9.904;2023-06-10T08:47:08;25.30;99.90
13642;DHT22;6894;52.196;9.904;2023-06-10T08:49:42;25.10;99.90
13642;DHT22;6894;52.196;9.904;2023-06-10T08:52:13;25.40;99.90
13642;DHT22;6894;52.196;9.904;2023-06-10T08:54:43;25.40;99.90
13642;DHT22;6894;52.196;9.904;2023-06-10T08:57:09;25.60;99.90
13642;DHT22;6894;52.196;9.904;2023-06-10T08:59:36;26.00;99.90
13642;DHT22;6894;52.196;9.904;2023-06-10T09:02:04;26.10;99.90
13642;DHT22;6894;52.196;9.904;2023-06-10T09:04:31;26.00;99.90
13642;DHT22;6894;52.196;9.904;2023-06-10T09:07:00;26.00;99.90
13642;DHT22;6894;52.196;9.904;2023-06-10T09:09:29;26.20;99.90
13642;DHT22;6894;52.196;9.904;2023-06-10T09:11:56;26.50;99.90
13642;DHT22;6894;52.196;9.904;2023-06-10T09:14:23;26.70;99.90
13642;DHT22;6894;52.196;9.904;2023-06-10T09:16:50;26.60;99.90
13642;DHT22;6894;52.196;9.904;2023-06-10T09:19:17;26.50;99.90
13642;DHT22;6894;52.196;9.904;2023-06-10T09:21:43;26.40;99.90
13642;DHT22;6894;52.196;9.904;2023-06-10T09:24:12;26.40;99.90
13642;DHT22;6894;52.196;9.904;2023-06-10T09:26:38;26.50;99.90
13642;DHT22;6894;52.196;9.904;2023-06-10T09:29:05;26.70;99.90
13642;DHT22;6894;52.196;9.904;2023-06-10T09:31:34;26.90;99.90
13642;DHT22;6894;52.196;9.904;2023-06-10T09:34:06;27.10;99.90
13642;DHT22;6894;52.196;9.904;2023-06-10T09:36:33;27.40;99.90
13642;DHT22;6894;52.196;9.904;2023-06-10T09:39:00;27.50;99.90
13642;DHT22;6894;52.196;9.904;2023-06-10T09:41:33;27.50;99.90
13642;DHT22;6894;52.196;9.904;2023-06-10T09:44:01;27.40;99.90
13642;DHT22;6894;52.196;9.904;2023-06-10T09:46:30;27.40;99.90
13642;DHT22;6894;52.196;9.904;2023-06-10T09:48:58;27.30;99.90
13642;DHT22;6894;52.196;9.904;2023-06-10T09:51:25;27.20;99.90
13642;DHT22;6894;52.196;9.904;2023-06-10T09:53:53;27.20;99.90
13642;DHT22;6894;52.196;9.904;2023-06-10T09:56:20;27.40;99.90
13642;DHT22;6894;52.196;9.904;2023-06-10T09:58:53;27.50;99.90
13642;DHT22;6894;52.196;9.904;2023-06-10T10:01:19;27.40;99.90
13642;DHT22;6894;52.196;9.904;2023-06-10T10:03:47;27.40;99.90
13642;DHT22;6894;52.196;9.904;2023-06-10T10:06:15;27.80;99.90
13642;DHT22;6894;52.196;9.904;2023-06-10T10:08:42;27.80;99.90
13642;DHT22;6894;52.196;9.904;2023-06-10T10:11:09;27.90;99.90
13642;DHT22;6894;52.196;9.904;2023-06-10T10:13:37;27.70;99.90
13642;DHT22;6894;52.196;9.904;2023-06-10T10:16:09;27.40;99.90
13642;DHT22;6894;52.196;9.904;2023-06-10T10:18:39;27.50;99.90
13642;DHT22;6894;52.196;9.904;2023-06-10T10:21:12;27.60;99.90
13642;DHT22;6894;52.196;9.904;2023-06-10T10:23:44;27.70;99.90
13642;DHT22;6894;52.196;9.904;2023-06-10T10:26:15;27.70;99.90
13642;DHT22;6894;52.196;9.904;2023-06-10T10:28:46;27.70;99.90
13642;DHT22;6894;52.196;9.904;2023-06-10T10:31:16;27.70;99.90
13642;DHT22;6894;52.196;9.904;2023-06-10T10:33:51;28.10;99.90
13642;DHT22;6894;52.196;9.904;2023-06-10T10:36:19;28.40;99.90
13642;DHT22;6894;52.196;9.904;2023-06-10T10:38:48;28.60;99.90
13642;DHT22;6894;52.196;9.904;2023-06-10T10:41:15;28.90;99.90
13642;DHT22;6894;52.196;9.904;2023-06-10T10:43:43;29.10;99.90
13642;DHT22;6894;52.196;9.904;2023-06-10T10:46:13;29.40;99.90
13642;DHT22;6894;52.196;9.904;2023-06-10T10:48:42;29.20;99.90
13642;DHT22;6894;52.196;9.904;2023-06-10T10:51:10;29.20;99.90
13642;DHT22;6894;52.196;9.904;2023-06-10T10:53:37;29.30;99.90
13642;DHT22;6894;52.196;9.904;2023-06-10T10:56:12;29.40;99.90
13642;DHT22;6894;52.196;9.904;2023-06-10T10:58:39;29.70;99.90
13642;DHT22;6894;52.196;9.904;2023-06-10T11:01:12;29.80;99.90
13642;DHT22;6894;52.196;9.904;2023-06-10T11:03:45;30.00;99.90
13642;DHT22;6894;52.196;9.904;2023-06-10T11:06:13;29.90;99.90
13642;DHT22;6894;52.196;9.904;2023-06-10T11:08:49;29.70;99.90
13642;DHT22;6894;52.196;9.904;2023-06-10T11:11:21;29.80;99.90
13642;DHT22;6894;52.196;9.904;2023-06-10T11:14:07;30.20;99.90
13642;DHT22;6894;52.196;9.904;2023-06-10T11:16:39;30.50;99.90
13642;DHT22;6894;52.196;9.904;2023-06-10T11:19:09;30.80;99.90
13642;DHT22;6894;52.196;9.904;2023-06-10T11:21:57;30.60;99.90
13642;DHT22;6894;52.196;9.904;2023-06-10T11:24:25;30.20;99.90
13642;DHT22;6894;52.196;9.904;2023-06-10T11:26:52;30.00;99.90
13642;DHT22;6894;52.196;9.904;2023-06-10T11:29:19;30.40;99.90
13642;DHT22;6894;52.196;9.904;2023-06-10T11:31:49;30.40;99.90
13642;DHT22;6894;52.196;9.904;2023-06-10T11:34:23;30.50;99.90
13642;DHT22;6894;52.196;9.904;2023-06-10T11:36:52;30.70;99.90
13642;DHT22;6894;52.196;9.904;2023-06-10T11:39:20;30.80;99.90
13642;DHT22;6894;52.196;9.904;2023-06-10T11:41:49;31.10;99.90
13642;DHT22;6894;52.196;9.904;2023-06-10T11:44:17;31.30;99.90
13642;DHT22;6894;52.196;9.904;2023-06-10T11:46:44;31.30;99.90
13642;DHT22;6894;52.196;9.904;2023-06-10T11:49:11;31.50;99.90
13642;DHT22;6894;52.196;9.904;2023-06-10T11:51:40;31.70;99.90
13642;DHT22;6894;52.196;9.904;2023-06-10T11:54:14;32.00;99.90
13642;DHT22;6894;52.196;9.904;2023-06-10T11:56:41;31.90;99.90
13642;DHT22;6894;52.196;9.904;2023-06-10T11:59:08;32.10;99.90
13642;DHT22;6894;52.196;9.904;2023-06-10T12:01:35;32.20;99.90
13642;DHT22;6894;52.196;9.904;2023-06-10T12:04:04;32.10;99.90
13642;DHT22;6894;52.196;9.904;2023-06-10T12:06:40;31.70;99.90
13642;DHT22;6894;52.196;9.904;2023-06-10T12:09:13;31.70;99.90
13642;DHT22;6894;52.196;9.904;2023-06-10T12:11:40;31.50;99.90
13642;DHT22;6894;52.196;9.904;2023-06-10T12:14:08;31.40;99.90
13642;DHT22;6894;52.196;9.904;2023-06-10T12:16:35;31.70;99.90
13642;DHT22;6894;52.196;9.904;2023-06-10T12:19:02;31.70;99.90
13642;DHT22;6894;52.196;9.904;2023-06-10T12:21:31;31.40;99.90
13642;DHT22;6894;52.196;9.904;2023-06-10T12:24:07;31.50;99.90
13642;DHT22;6894;52.196;9.904;2023-06-10T12:26:38;31.40;99.90
13642;DHT22;6894;52.196;9.904;2023-06-10T12:31:59;31.80;99.90
13642;DHT22;6894;52.196;9.904;2023-06-10T12:34:31;31.70;99.90
13642;DHT22;6894;52.196;9.904;2023-06-10T12:36:57;31.90;99.90
13642;DHT22;6894;52.196;9.904;2023-06-10T12:39:25;31.70;99.90
13642;DHT22;6894;52.196;9.904;2023-06-10T12:41:53;31.60;99.90
13642;DHT22;6894;52.196;9.904;2023-06-10T12:44:31;31.30;99.90
13642;DHT22;6894;52.196;9.904;2023-06-10T12:46:59;31.10;99.90
13642;DHT22;6894;52.196;9.904;2023-06-10T12:49:25;31.30;99.90
13642;DHT22;6894;52.196;9.904;2023-06-10T12:51:54;31.20;99.90
13642;DHT22;6894;52.196;9.904;2023-06-10T12:54:20;31.40;99.90
13642;DHT22;6894;52.196;9.904;2023-06-10T12:56:49;31.70;99.90
13642;DHT22;6894;52.196;9.904;2023-06-10T12:59:16;31.30;99.90
13642;DHT22;6894;52.196;9.904;2023-06-10T13:01:43;31.30;99.90
13642;DHT22;6894;52.196;9.904;2023-06-10T13:04:09;31.60;99.90
13642;DHT22;6894;52.196;9.904;2023-06-10T13:06:37;32.00;99.90
13642;DHT22;6894;52.196;9.904;2023-06-10T13:09:05;32.00;99.90
13642;DHT22;6894;52.196;9.904;2023-06-10T13:11:32;31.90;99.90
13642;DHT22;6894;52.196;9.904;2023-06-10T13:14:00;31.90;99.90
13642;DHT22;6894;52.196;9.904;2023-06-10T13:16:28;32.00;99.90
13642;DHT22;6894;52.196;9.904;2023-06-10T13:18:55;31.90;99.90
13642;DHT22;6894;52.196;9.904;2023-06-10T13:21:22;31.90;99.90
13642;DHT22;6894;52.196;9.904;2023-06-10T13:23:48;32.10;99.90
13642;DHT22;6894;52.196;9.904;2023-06-10T13:26:16;31.80;99.90
13642;DHT22;6894;52.196;9.904;2023-06-10T13:28:43;31.70;99.90
13642;DHT22;6894;52.196;9.904;2023-06-10T13:31:11;31.60;99.90
13642;DHT22;6894;52.196;9.904;2023-06-10T13:33:38;31.40;99.90
13642;DHT22;6894;52.196;9.904;2023-06-10T13:36:06;31.50;99.90
13642;DHT22;6894;52.196;9.904;2023-06-10T13:38:32;31.40;99.90
13642;DHT22;6894;52.196;9.904;2023-06-10T13:40:59;31.30;99.90
13642;DHT22;6894;52.196;9.904;2023-06-10T13:43:26;31.50;99.90
13642;DHT22;6894;52.196;9.904;2023-06-10T13:45:54;31.60;99.90
13642;DHT22;6894;52.196;9.904;2023-06-10T13:48:22;31.90;99.90
13642;DHT22;6894;52.196;9.904;2023-06-10T13:50:49;32.20;99.90
13642;DHT22;6894;52.196;9.904;2023-06-10T13:53:15;32.40;99.90
13642;DHT22;6894;52.196;9.904;2023-06-10T13:55:42;32.40;99.90
13642;DHT22;6894;52.196;9.904;2023-06-10T13:58:09;32.10;99.90
13642;DHT22;6894;52.196;9.904;2023-06-10T14:00:35;32.30;99.90
13642;DHT22;6894;52.196;9.904;2023-06-10T14:03:02;32.30;99.90
13642;DHT22;6894;52.196;9.904;2023-06-10T14:05:30;31.90;99.90
13642;DHT22;6894;52.196;9.904;2023-06-10T14:07:58;31.90;99.90
13642;DHT22;6894;52.196;9.904;2023-06-10T14:10:25;31.80;99.90
13642;DHT22;6894;52.196;9.904;2023-06-10T14:12:52;31.70;99.90
13642;DHT22;6894;52.196;9.904;2023-06-10T14:15:19;31.30;99.90
13642;DHT22;6894;52.196;9.904;2023-06-10T14:17:46;31.40;99.90
13642;DHT22;6894;52.196;9.904;2023-06-10T14:20:12;31.50;99.90
13642;DHT22;6894;52.196;9.904;2023-06-10T14:22:41;31.70;99.90
13642;DHT22;6894;52.196;9.904;2023-06-10T14:25:08;31.60;99.90
13642;DHT22;6894;52.196;9.904;2023-06-10T14:27:35;31.70;99.90
13642;DHT22;6894;52.196;9.904;2023-06-10T14:30:02;31.60;99.90
13642;DHT22;6894;52.196;9.904;2023-06-10T14:32:30;31.70;99.90
13642;DHT22;6894;52.196;9.904;2023-06-10T14:34:56;31.70;99.90
13642;DHT22;6894;52.196;9.904;2023-06-10T14:37:23;31.80;99.90
13642;DHT22;6894;52.196;9.904;2023-06-10T14:39:51;31.70;99.90
13642;DHT22;6894;52.196;9.904;2023-06-10T14:42:18;31.90;99.90
13642;DHT22;6894;52.196;9.904;2023-06-10T14:44:44;31.80;99.90
13642;DHT22;6894;52.196;9.904;2023-06-10T14:47:11;31.80;99.90
13642;DHT22;6894;52.196;9.904;2023-06-10T14:49:38;31.70;99.90
13642;DHT22;6894;52.196;9.904;2023-06-10T14:52:05;31.50;99.90
13642;DHT22;6894;52.196;9.904;2023-06-10T14:54:31;31.70;99.90
13642;DHT22;6894;52.196;9.904;2023-06-10T14:56:59;31.40;99.90
13642;DHT22;6894;52.196;9.904;2023-06-10T14:59:26;31.20;99.90
13642;DHT22;6894;52.196;9.904;2023-06-10T15:01:53;31.30;99.90
13642;DHT22;6894;52.196;9.904;2023-06-10T15:04:19;31.50;99.90
13642;DHT22;6894;52.196;9.904;2023-06-10T15:06:46;31.70;99.90
13642;DHT22;6894;52.196;9.904;2023-06-10T15:09:14;31.40;99.90
13642;DHT22;6894;52.196;9.904;2023-06-10T15:11:41;31.20;99.90
13642;DHT22;6894;52.196;9.904;2023-06-10T15:14:09;31.30;99.90
13642;DHT22;6894;52.196;9.904;2023-06-10T15:16:36;31.50;99.90
13642;DHT22;6894;52.196;9.904;2023-06-10T15:19:02;31.50;99.90
13642;DHT22;6894;52.196;9.904;2023-06-10T15:21:32;31.10;99.90
13642;DHT22;6894;52.196;9.904;2023-06-10T15:23:58;30.90;99.90
13642;DHT22;6894;52.196;9.904;2023-06-10T15:26:25;30.70;99.90
13642;DHT22;6894;52.196;9.904;2023-06-10T15:28:52;30.80;99.90
13642;DHT22;6894;52.196;9.904;2023-06-10T15:31:20;30.80;99.90
13642;DHT22;6894;52.196;9.904;2023-06-10T15:33:47;30.80;99.90
13642;DHT22;6894;52.196;9.904;2023-06-10T15:36:13;30.90;99.90
13642;DHT22;6894;52.196;9.904;2023-06-10T15:38:40;30.50;99.90
13642;DHT22;6894;52.196;9.904;2023-06-10T15:41:07;30.60;99.90
13642;DHT22;6894;52.196;9.904;2023-06-10T15:43:34;30.60;99.90
13642;DHT22;6894;52.196;9.904;2023-06-10T15:46:00;30.70;99.90
13642;DHT22;6894;52.196;9.904;2023-06-10T15:48:29;30.80;99.90
13642;DHT22;6894;52.196;9.904;2023-06-10T15:50:55;30.90;99.90
13642;DHT22;6894;52.196;9.904;2023-06-10T15:53:22;30.60;99.90
13642;DHT22;6894;52.196;9.904;2023-06-10T15:55:49;30.50;99.90
13642;DHT22;6894;52.196;9.904;2023-06-10T15:58:15;30.40;99.90